createdAt,value
2022-09-09T00:00:07.030Z,20.00
2022-09-09T00:01:07.025Z,17.90
2022-09-09T00:02:07.071Z,21.70
2022-09-09T00:03:07.227Z,24.10
2022-09-09T00:04:06.985Z,18.50
2022-09-09T00:05:07.001Z,16.50
2022-09-09T00:06:06.963Z,16.90
2022-09-09T00:07:06.956Z,15.90
2022-09-09T00:08:06.942Z,20.00
2022-09-09T00:09:06.942Z,19.30
2022-09-09T00:10:06.921Z,20.60
2022-09-09T00:11:06.908Z,20.40
2022-09-09T00:12:06.896Z,19.70
2022-09-09T00:13:06.886Z,22.20
2022-09-09T00:14:06.875Z,17.60
2022-09-09T00:15:06.863Z,20.40
2022-09-09T00:16:06.901Z,18.10
2022-09-09T00:17:06.843Z,19.40
2022-09-09T00:18:06.830Z,16.40
2022-09-09T00:19:06.819Z,16.90
2022-09-09T00:20:06.809Z,17.90
2022-09-09T00:21:06.822Z,20.70
2022-09-09T00:22:06.786Z,15.40
2022-09-09T00:23:06.777Z,17.50
2022-09-09T00:24:06.763Z,17.00
2022-09-09T00:25:06.755Z,17.70
2022-09-09T00:26:06.741Z,17.80
2022-09-09T00:27:06.730Z,15.70
2022-09-09T00:28:06.717Z,21.50
2022-09-09T00:29:06.721Z,19.30
2022-09-09T00:30:06.695Z,24.40
2022-09-09T00:31:06.711Z,28.80
2022-09-09T00:32:06.679Z,34.70
2022-09-09T00:33:07.871Z,28.30
2022-09-09T00:34:06.650Z,22.70
2022-09-09T00:35:06.641Z,26.70
2022-09-09T00:36:06.630Z,21.70
2022-09-09T00:37:06.643Z,21.20
2022-09-09T00:38:06.605Z,20.10
2022-09-09T00:39:06.595Z,21.40
2022-09-09T00:40:06.648Z,18.60
2022-09-09T00:41:06.572Z,20.90
2022-09-09T00:42:06.562Z,20.90
2022-09-09T00:43:06.551Z,18.10
2022-09-09T00:44:06.538Z,20.70
2022-09-09T00:45:06.529Z,18.50
2022-09-09T00:46:06.583Z,17.00
2022-09-09T00:47:06.506Z,18.30
2022-09-09T00:48:06.496Z,19.70
2022-09-09T00:49:06.482Z,23.10
2022-09-09T00:50:06.471Z,18.20
2022-09-09T00:51:06.461Z,18.20
2022-09-09T00:52:06.448Z,19.70
2022-09-09T00:53:06.473Z,20.90
2022-09-09T00:54:06.443Z,19.60
2022-09-09T00:55:06.416Z,17.60
2022-09-09T00:56:06.403Z,19.20
2022-09-09T00:57:06.393Z,23.80
2022-09-09T00:58:06.386Z,21.00
2022-09-09T00:59:06.372Z,20.00
2022-09-09T01:00:06.361Z,20.10
2022-09-09T01:01:06.419Z,19.90
2022-09-09T01:02:06.373Z,26.90
2022-09-09T01:03:06.333Z,20.60
2022-09-09T01:04:06.314Z,19.60
2022-09-09T01:05:06.307Z,18.70
2022-09-09T01:06:06.291Z,19.20
2022-09-09T01:07:06.283Z,18.40
2022-09-09T01:08:06.271Z,19.90
2022-09-09T01:09:06.284Z,20.60
2022-09-09T01:10:06.247Z,19.30
2022-09-09T01:11:06.238Z,23.50
2022-09-09T01:12:06.225Z,23.10
2022-09-09T01:13:06.217Z,20.20
2022-09-09T01:14:06.209Z,20.60
2022-09-09T01:15:06.198Z,20.50
2022-09-09T01:16:06.180Z,21.90
2022-09-09T01:17:06.226Z,24.00
2022-09-09T01:18:06.159Z,21.30
2022-09-09T01:19:06.150Z,20.10
2022-09-09T01:20:06.137Z,23.20
2022-09-09T01:21:06.126Z,27.40
2022-09-09T01:22:06.113Z,22.00
2022-09-09T01:23:06.104Z,23.80
2022-09-09T01:24:06.090Z,21.70
2022-09-09T01:25:06.107Z,22.10
2022-09-09T01:26:06.068Z,23.20
2022-09-09T01:27:06.062Z,23.80
2022-09-09T01:28:06.051Z,25.20
2022-09-09T01:29:06.039Z,22.30
2022-09-09T01:30:06.025Z,25.10
2022-09-09T01:31:06.117Z,23.00
2022-09-09T01:32:06.005Z,24.10
2022-09-09T01:33:05.993Z,25.90
2022-09-09T01:34:05.981Z,24.50
2022-09-09T01:35:05.972Z,26.10
2022-09-09T01:36:05.960Z,26.00
2022-09-09T01:37:05.950Z,27.80
2022-09-09T01:38:05.940Z,24.10
2022-09-09T01:39:05.931Z,26.80
2022-09-09T01:40:05.998Z,26.80
2022-09-09T01:41:05.930Z,22.10
2022-09-09T01:42:05.894Z,23.40
2022-09-09T01:43:05.884Z,25.00
2022-09-09T01:44:05.870Z,24.60
2022-09-09T01:45:05.862Z,23.50
2022-09-09T01:46:05.922Z,23.00
2022-09-09T01:47:05.840Z,22.40
2022-09-09T01:48:05.827Z,23.40
2022-09-09T01:49:05.818Z,22.00
2022-09-09T01:50:05.803Z,24.30
2022-09-09T01:51:05.795Z,22.40
2022-09-09T01:52:05.783Z,26.50
2022-09-09T01:53:05.772Z,23.70
2022-09-09T01:54:05.758Z,25.90
2022-09-09T01:55:05.749Z,26.00
2022-09-09T01:56:05.741Z,23.00
2022-09-09T01:57:05.751Z,24.80
2022-09-09T01:58:05.716Z,24.50
2022-09-09T01:59:05.706Z,24.30
2022-09-09T02:00:05.694Z,28.00
2022-09-09T02:01:05.713Z,28.10
2022-09-09T02:02:05.695Z,32.20
2022-09-09T02:03:05.663Z,29.20
2022-09-09T02:04:05.655Z,27.90
2022-09-09T02:05:05.639Z,25.80
2022-09-09T02:06:05.626Z,25.90
2022-09-09T02:07:06.016Z,23.90
2022-09-09T02:08:05.605Z,25.80
2022-09-09T02:09:05.597Z,26.60
2022-09-09T02:10:05.586Z,25.20
2022-09-09T02:11:05.576Z,25.60
2022-09-09T02:12:05.561Z,28.80
2022-09-09T02:13:05.575Z,27.40
2022-09-09T02:14:05.538Z,30.00
2022-09-09T02:15:05.530Z,28.20
2022-09-09T02:16:05.517Z,26.50
2022-09-09T02:17:05.591Z,28.70
2022-09-09T02:18:05.494Z,30.20
2022-09-09T02:19:05.487Z,26.10
2022-09-09T02:20:05.474Z,28.60
2022-09-09T02:21:05.466Z,26.30
2022-09-09T02:22:05.451Z,26.30
2022-09-09T02:23:05.493Z,28.70
2022-09-09T02:24:05.436Z,28.50
2022-09-09T02:25:05.420Z,27.20
2022-09-09T02:26:05.407Z,25.90
2022-09-09T02:27:05.396Z,28.10
2022-09-09T02:28:05.387Z,35.90
2022-09-09T02:29:05.401Z,31.40
2022-09-09T02:30:05.361Z,27.60
2022-09-09T02:31:05.453Z,27.10
2022-09-09T02:32:05.341Z,30.10
2022-09-09T02:33:05.331Z,30.30
2022-09-09T02:34:05.319Z,27.40
2022-09-09T02:35:05.310Z,28.70
2022-09-09T02:36:05.297Z,30.20
2022-09-09T02:37:05.291Z,27.90
2022-09-09T02:38:05.275Z,28.90
2022-09-09T02:39:05.266Z,27.60
2022-09-09T02:40:05.267Z,28.20
2022-09-09T02:41:05.243Z,27.30
2022-09-09T02:42:05.232Z,31.30
2022-09-09T02:43:05.222Z,32.90
2022-09-09T02:44:05.218Z,28.50
2022-09-09T02:45:05.225Z,27.60
2022-09-09T02:46:05.283Z,33.70
2022-09-09T02:47:05.178Z,28.90
2022-09-09T02:48:05.165Z,32.20
2022-09-09T02:49:05.157Z,33.10
2022-09-09T02:50:05.145Z,31.50
2022-09-09T02:51:05.134Z,28.70
2022-09-09T02:52:05.126Z,28.30
2022-09-09T02:53:05.114Z,29.20
2022-09-09T02:54:05.101Z,26.80
2022-09-09T02:55:05.091Z,30.50
2022-09-09T02:56:05.079Z,28.20
2022-09-09T02:57:05.072Z,30.30
2022-09-09T02:58:05.062Z,27.90
2022-09-09T02:59:05.054Z,27.10
2022-09-09T03:00:05.043Z,27.40
2022-09-09T03:01:05.111Z,28.80
2022-09-09T03:02:05.090Z,25.70
2022-09-09T03:03:05.007Z,29.00
2022-09-09T03:04:04.994Z,26.60
2022-09-09T03:05:04.993Z,27.70
2022-09-09T03:06:04.977Z,32.30
2022-09-09T03:07:04.959Z,31.10
2022-09-09T03:08:04.948Z,26.40
2022-09-09T03:09:04.937Z,26.00
2022-09-09T03:10:04.925Z,24.50
2022-09-09T03:11:04.923Z,24.70
2022-09-09T03:12:04.905Z,25.10
2022-09-09T03:13:04.895Z,26.40
2022-09-09T03:14:04.882Z,27.40
2022-09-09T03:15:04.873Z,27.70
2022-09-09T03:16:04.930Z,27.00
2022-09-09T03:17:04.879Z,24.50
2022-09-09T03:18:04.837Z,25.90
2022-09-09T03:19:04.829Z,26.60
2022-09-09T03:20:04.829Z,25.80
2022-09-09T03:21:04.852Z,26.90
2022-09-09T03:22:04.845Z,24.30
2022-09-09T03:23:04.912Z,25.20
2022-09-09T03:24:04.965Z,25.10
2022-09-09T03:25:04.890Z,24.30
2022-09-09T03:26:04.951Z,25.90
2022-09-09T03:27:04.743Z,24.80
2022-09-09T03:28:04.730Z,25.50
2022-09-09T03:29:04.720Z,25.80
2022-09-09T03:30:04.710Z,28.70
2022-09-09T03:31:04.709Z,28.40
2022-09-09T03:32:04.756Z,27.10
2022-09-09T03:33:04.704Z,27.80
2022-09-09T03:34:04.666Z,26.90
2022-09-09T03:35:04.656Z,28.10
2022-09-09T03:36:04.643Z,26.40
2022-09-09T03:37:04.633Z,27.30
2022-09-09T03:38:04.620Z,27.40
2022-09-09T03:39:04.613Z,28.30
2022-09-09T03:40:04.675Z,30.50
2022-09-09T03:41:04.591Z,27.70
2022-09-09T03:42:04.577Z,28.40
2022-09-09T03:43:04.567Z,29.40
2022-09-09T03:44:04.555Z,26.40
2022-09-09T03:45:04.549Z,26.80
2022-09-09T03:46:04.600Z,27.10
2022-09-09T03:47:04.523Z,29.60
2022-09-09T03:48:04.510Z,27.40
2022-09-09T03:49:04.526Z,28.80
2022-09-09T03:50:04.491Z,30.00
2022-09-09T03:51:04.479Z,27.80
2022-09-09T03:52:04.468Z,28.40
2022-09-09T03:53:04.458Z,29.30
2022-09-09T03:54:04.447Z,30.10
2022-09-09T03:55:04.433Z,31.80
2022-09-09T03:56:04.423Z,28.50
2022-09-09T03:57:04.411Z,28.00
2022-09-09T03:58:04.403Z,27.80
2022-09-09T03:59:04.390Z,28.00
2022-09-09T04:01:04.437Z,30.20
2022-09-09T04:02:04.441Z,30.80
2022-09-09T04:03:04.346Z,29.00
2022-09-09T04:04:04.358Z,33.70
2022-09-09T04:05:04.349Z,30.50
2022-09-09T04:06:04.312Z,28.30
2022-09-09T04:07:04.299Z,31.40
2022-09-09T04:08:04.295Z,27.20
2022-09-09T04:09:04.278Z,28.90
2022-09-09T04:10:04.266Z,28.90
2022-09-09T04:11:04.253Z,30.90
2022-09-09T04:12:04.245Z,29.30
2022-09-09T04:13:04.233Z,27.30
2022-09-09T04:14:04.223Z,29.80
2022-09-09T04:15:04.210Z,31.70
2022-09-09T04:16:04.227Z,30.80
2022-09-09T04:17:04.187Z,34.70
2022-09-09T04:18:04.181Z,30.90
2022-09-09T04:19:04.165Z,28.30
2022-09-09T04:20:04.154Z,28.00
2022-09-09T04:21:04.163Z,31.60
2022-09-09T04:22:04.132Z,32.70
2022-09-09T04:23:04.123Z,31.10
2022-09-09T04:24:04.109Z,32.30
2022-09-09T04:25:04.130Z,31.50
2022-09-09T04:26:04.095Z,34.30
2022-09-09T04:27:04.077Z,33.70
2022-09-09T04:28:04.067Z,32.20
2022-09-09T04:29:04.054Z,33.40
2022-09-09T04:30:04.044Z,35.60
2022-09-09T04:31:04.029Z,34.30
2022-09-09T04:32:04.087Z,33.20
2022-09-09T04:33:04.259Z,32.50
2022-09-09T04:34:04.001Z,32.30
2022-09-09T04:35:03.986Z,14.80
2022-09-09T04:36:04.231Z,16.70
2022-09-09T04:37:03.987Z,24.60
2022-09-09T04:38:03.955Z,28.70
2022-09-09T04:39:04.034Z,28.90
2022-09-09T04:40:04.081Z,35.50
2022-09-09T04:41:03.924Z,33.00
2022-09-09T04:42:03.911Z,32.20
2022-09-09T04:43:03.897Z,29.80
2022-09-09T04:44:03.890Z,40.80
2022-09-09T04:45:03.875Z,36.00
2022-09-09T04:46:03.877Z,32.50
2022-09-09T04:47:03.851Z,31.70
2022-09-09T04:48:03.843Z,32.10
2022-09-09T04:49:03.833Z,35.60
2022-09-09T04:50:03.820Z,31.90
2022-09-09T04:51:03.807Z,32.30
2022-09-09T04:52:03.798Z,31.80
2022-09-09T04:53:03.816Z,29.90
2022-09-09T04:54:03.781Z,33.60
2022-09-09T04:55:03.766Z,28.70
2022-09-09T04:56:03.757Z,32.50
2022-09-09T04:57:03.741Z,31.20
2022-09-09T04:58:03.735Z,33.60
2022-09-09T04:59:03.721Z,27.60
2022-09-09T05:00:03.712Z,30.80
2022-09-09T05:01:03.717Z,28.10
2022-09-09T05:02:03.769Z,27.40
2022-09-09T05:03:03.680Z,28.40
2022-09-09T05:04:03.672Z,31.30
2022-09-09T05:05:03.852Z,26.30
2022-09-09T05:06:03.642Z,32.20
2022-09-09T05:07:03.631Z,30.20
2022-09-09T05:08:03.629Z,33.20
2022-09-09T05:09:03.634Z,31.20
2022-09-09T05:10:03.600Z,28.60
2022-09-09T05:11:03.597Z,32.30
2022-09-09T05:12:03.575Z,29.30
2022-09-09T05:13:03.565Z,30.20
2022-09-09T05:14:03.553Z,31.70
2022-09-09T05:15:03.564Z,24.90
2022-09-09T05:16:03.597Z,27.20
2022-09-09T05:17:03.522Z,26.20
2022-09-09T05:18:03.513Z,25.80
2022-09-09T05:19:03.500Z,27.50
2022-09-09T05:20:06.610Z,27.30
2022-09-09T05:21:03.476Z,26.90
2022-09-09T05:22:03.469Z,30.10
2022-09-09T05:23:03.456Z,27.10
2022-09-09T05:24:03.444Z,27.20
2022-09-09T05:25:03.457Z,27.60
2022-09-09T05:26:03.429Z,28.50
2022-09-09T05:27:03.414Z,26.20
2022-09-09T05:28:03.398Z,25.30
2022-09-09T05:29:03.386Z,29.90
2022-09-09T05:30:03.378Z,28.80
2022-09-09T05:31:03.393Z,29.80
2022-09-09T05:32:03.455Z,27.70
2022-09-09T05:33:03.342Z,28.90
2022-09-09T05:34:03.334Z,32.20
2022-09-09T05:35:03.320Z,27.80
2022-09-09T05:36:03.309Z,29.40
2022-09-09T05:37:03.297Z,30.90
2022-09-09T05:38:03.290Z,34.00
2022-09-09T05:39:03.278Z,29.60
2022-09-09T05:40:03.382Z,33.60
2022-09-09T05:41:03.278Z,30.90
2022-09-09T05:42:03.244Z,33.00
2022-09-09T05:43:03.235Z,32.20
2022-09-09T05:44:03.233Z,36.30
2022-09-09T05:45:03.229Z,29.90
2022-09-09T05:46:03.201Z,30.80
2022-09-09T05:47:03.246Z,28.70
2022-09-09T05:48:03.184Z,27.10
2022-09-09T05:49:03.166Z,29.10
2022-09-09T05:50:03.159Z,28.20
2022-09-09T05:51:03.141Z,30.50
2022-09-09T05:52:03.132Z,28.90
2022-09-09T05:53:03.118Z,31.60
2022-09-09T05:54:03.108Z,32.40
2022-09-09T05:55:03.097Z,27.20
2022-09-09T05:56:03.102Z,25.90
2022-09-09T05:57:03.121Z,27.60
2022-09-09T05:58:03.067Z,24.80
2022-09-09T05:59:03.064Z,28.60
2022-09-09T06:00:03.049Z,22.40
2022-09-09T06:01:03.034Z,26.40
2022-09-09T06:02:03.136Z,25.50
2022-09-09T06:03:03.174Z,24.10
2022-09-09T06:04:03.006Z,25.50
2022-09-09T06:05:02.986Z,31.80
2022-09-09T06:06:02.977Z,30.40
2022-09-09T06:07:02.965Z,19.40
2022-09-09T06:08:02.979Z,22.40
2022-09-09T06:09:02.974Z,23.30
2022-09-09T06:10:02.933Z,26.70
2022-09-09T06:11:02.921Z,22.30
2022-09-09T06:12:02.913Z,28.60
2022-09-09T06:13:02.931Z,28.80
2022-09-09T06:14:02.900Z,20.30
2022-09-09T06:15:02.887Z,21.30
2022-09-09T06:16:02.940Z,21.40
2022-09-09T06:17:02.860Z,19.50
2022-09-09T06:18:02.856Z,19.40
2022-09-09T06:19:02.844Z,20.10
2022-09-09T06:20:02.848Z,14.80
2022-09-09T06:21:02.845Z,13.50
2022-09-09T06:22:02.805Z,17.90
2022-09-09T06:23:02.801Z,18.00
2022-09-09T06:24:02.782Z,20.30
2022-09-09T06:25:02.775Z,20.60
2022-09-09T06:26:02.760Z,21.20
2022-09-09T06:27:02.756Z,20.70
2022-09-09T06:28:02.739Z,21.80
2022-09-09T06:29:02.748Z,19.80
2022-09-09T06:30:02.715Z,19.40
2022-09-09T06:31:02.754Z,18.70
2022-09-09T06:32:02.792Z,18.80
2022-09-09T06:33:02.680Z,17.30
2022-09-09T06:34:02.676Z,19.40
2022-09-09T06:35:02.685Z,20.80
2022-09-09T06:36:02.666Z,17.80
2022-09-09T06:37:02.661Z,19.70
2022-09-09T06:38:02.623Z,18.80
2022-09-09T06:39:02.615Z,15.10
2022-09-09T06:40:02.768Z,16.40
2022-09-09T06:41:02.588Z,16.40
2022-09-09T06:42:02.590Z,16.50
2022-09-09T06:43:02.572Z,17.40
2022-09-09T06:44:02.563Z,14.60
2022-09-09T06:45:02.572Z,14.20
2022-09-09T06:46:02.542Z,14.50
2022-09-09T06:47:02.557Z,15.50
2022-09-09T06:48:02.520Z,14.60
2022-09-09T06:49:02.508Z,14.80
2022-09-09T06:50:02.494Z,13.30
2022-09-09T06:51:02.478Z,12.60
2022-09-09T06:52:02.474Z,11.90
2022-09-09T06:53:02.459Z,10.70
2022-09-09T06:54:02.449Z,11.60
2022-09-09T06:55:02.454Z,11.8
2022-09-09T06:56:02.451Z,8.00
2022-09-09T06:57:11.145Z,9.10
2022-09-09T06:58:03.429Z,8.20
2022-09-09T06:59:02.393Z,7.70
2022-09-09T07:00:02.382Z,7.60
2022-09-09T07:01:02.528Z,7.70
2022-09-09T07:02:02.446Z,7.60
2022-09-09T07:03:02.353Z,7.10
2022-09-09T07:04:02.343Z,6.20
2022-09-09T07:05:02.327Z,5.90
2022-09-09T07:06:02.318Z,6.00
2022-09-09T07:07:02.309Z,6.80
2022-09-09T07:08:02.296Z,7.00
2022-09-09T07:09:02.282Z,6.30
2022-09-09T07:10:02.276Z,5.00
2022-09-09T07:11:02.264Z,5.90
2022-09-09T07:12:02.254Z,5.10
2022-09-09T07:13:02.238Z,4.90
2022-09-09T07:14:02.237Z,4.70
2022-09-09T07:15:02.237Z,4.00
2022-09-09T07:16:02.280Z,4.10
2022-09-09T07:17:02.235Z,4.20
2022-09-09T07:18:02.226Z,3.80
2022-09-09T07:19:02.488Z,3.80
2022-09-09T07:20:02.163Z,3.60
2022-09-09T07:21:02.155Z,3.50
2022-09-09T07:22:02.144Z,4.00
2022-09-09T07:23:02.134Z,3.80
2022-09-09T07:24:02.124Z,3.90
2022-09-09T07:25:02.110Z,3.70
2022-09-09T07:26:02.101Z,3.30
2022-09-09T07:27:02.089Z,3.50
2022-09-09T07:28:02.081Z,3.40
2022-09-09T07:29:02.072Z,3.80
2022-09-09T07:30:02.057Z,3.60
2022-09-09T07:31:02.127Z,3.30
2022-09-09T07:32:02.044Z,3.00
2022-09-09T07:33:02.048Z,3.10
2022-09-09T07:34:02.017Z,2.80
2022-09-09T07:35:02.001Z,2.80
2022-09-09T07:36:01.990Z,2.60
2022-09-09T07:37:01.980Z,3.10
2022-09-09T07:38:01.972Z,3.00
2022-09-09T07:39:01.958Z,3.30
2022-09-09T07:40:02.066Z,3.30
2022-09-09T07:41:01.937Z,3.60
2022-09-09T07:42:01.930Z,3.40
2022-09-09T07:43:01.916Z,2.80
2022-09-09T07:44:02.047Z,3.40
2022-09-09T07:45:01.894Z,4.30
2022-09-09T07:46:01.923Z,4.60
2022-09-09T07:47:01.869Z,5.00
2022-09-09T07:48:01.862Z,4.70
2022-09-09T07:49:01.882Z,4.90
2022-09-09T07:50:01.840Z,5.50
2022-09-09T07:51:01.832Z,6.00
2022-09-09T07:52:01.866Z,6.50
2022-09-09T07:53:01.806Z,6.60
2022-09-09T07:54:01.797Z,6.20
2022-09-09T07:55:01.809Z,6.30
2022-09-09T07:56:03.935Z,5.80
2022-09-09T07:57:01.764Z,5.50
2022-09-09T07:58:01.757Z,5.50
2022-09-09T07:59:01.743Z,5.90
2022-09-09T08:00:01.737Z,5.60
2022-09-09T08:01:01.720Z,5.70
2022-09-09T08:02:01.810Z,5.40
2022-09-09T08:03:01.729Z,5.80
2022-09-09T08:04:01.693Z,5.90
2022-09-09T08:05:01.735Z,5.70
2022-09-09T08:06:01.673Z,6.20
2022-09-09T08:07:01.709Z,6.50
2022-09-09T08:08:01.647Z,6.90
2022-09-09T08:09:01.637Z,6.00
2022-09-09T08:10:01.628Z,6.00
2022-09-09T08:11:01.617Z,5.60
2022-09-09T08:12:01.607Z,5.40
2022-09-09T08:13:17.523Z,5.60
2022-09-09T08:14:02.805Z,5.50
2022-09-09T08:15:01.573Z,5.20
2022-09-09T08:16:01.588Z,5.90
2022-09-09T08:17:01.550Z,5.90
2022-09-09T08:18:01.541Z,6.40
2022-09-09T08:19:01.564Z,6.50
2022-09-09T08:20:01.703Z,5.40
2022-09-09T08:21:01.535Z,5.40
2022-09-09T08:22:01.509Z,5.20
2022-09-09T08:23:01.490Z,6.00
2022-09-09T08:24:01.475Z,5.80
2022-09-09T08:25:01.474Z,5.40
2022-09-09T08:26:01.453Z,5.90
2022-09-09T08:27:01.445Z,5.50
2022-09-09T08:28:01.431Z,5.30
2022-09-09T08:29:01.426Z,5.00
2022-09-09T08:30:01.431Z,5.30
2022-09-09T08:31:01.613Z,5.60
2022-09-09T08:32:01.393Z,4.70
2022-09-09T08:33:01.381Z,4.70
2022-09-09T08:34:01.466Z,4.40
2022-09-09T08:35:01.645Z,5.10
2022-09-09T08:36:01.348Z,5.60
2022-09-09T08:37:01.371Z,5.10
2022-09-09T08:38:01.325Z,4.60
2022-09-09T08:39:01.320Z,4.70
2022-09-09T08:40:01.362Z,4.70
2022-09-09T08:41:01.339Z,4.70
2022-09-09T08:42:01.342Z,5.10
2022-09-09T08:43:01.290Z,5.30
2022-09-09T08:44:01.277Z,4.80
2022-09-09T08:45:01.262Z,5.10
2022-09-09T08:46:01.320Z,5.20
2022-09-09T08:47:01.243Z,5.20
2022-09-09T08:48:01.218Z,5.40
2022-09-09T08:49:01.211Z,6.40
2022-09-09T08:50:01.196Z,6.90
2022-09-09T08:51:01.203Z,7.70
2022-09-09T08:52:01.185Z,7.60
2022-09-09T08:53:01.194Z,6.50
2022-09-09T08:54:01.155Z,6.70
2022-09-09T08:55:01.145Z,6.50
2022-09-09T08:56:01.132Z,7.10
2022-09-09T08:57:01.129Z,6.20
2022-09-09T08:58:01.110Z,6.60
2022-09-09T08:59:01.104Z,6.00
2022-09-09T09:00:01.096Z,5.60
2022-09-09T09:01:01.093Z,4.80
2022-09-09T09:02:01.286Z,5.60
2022-09-09T09:03:01.073Z,5.70
2022-09-09T09:04:01.049Z,5.00
2022-09-09T09:05:01.067Z,4.60
2022-09-09T09:06:01.025Z,4.30
2022-09-09T09:07:01.036Z,4.20
2022-09-09T09:08:01.003Z,4.50
2022-09-09T09:09:01.021Z,4.60
2022-09-09T09:10:00.985Z,4.20
2022-09-09T09:11:00.975Z,3.90
2022-09-09T09:12:00.960Z,4.10
2022-09-09T09:13:00.953Z,4.00
2022-09-09T09:14:00.941Z,3.20
2022-09-09T09:15:00.931Z,4.00
2022-09-09T09:16:00.962Z,3.40
2022-09-09T09:17:00.914Z,3.40
2022-09-09T09:18:00.903Z,3.20
2022-09-09T09:19:00.889Z,3.50
2022-09-09T09:20:00.877Z,2.90
2022-09-09T09:21:00.866Z,3.10
2022-09-09T09:22:00.852Z,2.70
2022-09-09T09:23:01.089Z,2.90
2022-09-09T09:24:00.839Z,2.90
2022-09-09T09:25:00.855Z,3.10
2022-09-09T09:26:00.807Z,2.40
2022-09-09T09:27:00.840Z,2.70
2022-09-09T09:28:00.813Z,2.90
2022-09-09T09:29:00.778Z,3.20
2022-09-09T09:30:22.870Z,2.80
2022-09-09T09:31:01.828Z,3.30
2022-09-09T09:32:00.797Z,3.20
2022-09-09T09:33:00.943Z,2.60
2022-09-09T09:34:00.729Z,2.50
2022-09-09T09:35:00.785Z,3.20
2022-09-09T09:36:00.836Z,2.70
2022-09-09T09:37:00.834Z,2.60
2022-09-09T09:41:00.913Z,2.30
2022-09-09T09:42:05.065Z,2.30
2022-09-09T09:43:00.784Z,2.70
2022-09-09T09:44:00.642Z,2.40
2022-09-09T09:45:01.173Z,2.10
2022-09-09T09:46:16.616Z,1.80
2022-09-09T09:47:01.661Z,1.90
2022-09-09T09:48:05.382Z,2.60
2022-09-09T09:49:00.572Z,2.20
2022-09-09T09:50:00.702Z,2.40
2022-09-09T09:51:00.538Z,2.10
2022-09-09T09:52:00.528Z,2.20
2022-09-09T09:53:00.518Z,1.90
2022-09-09T09:54:00.528Z,1.70
2022-09-09T09:55:04.029Z,1.60
2022-09-09T09:56:01.514Z,1.40
2022-09-09T09:57:00.508Z,1.40
2022-09-09T09:58:00.534Z,1.60
2022-09-09T09:59:00.710Z,1.50
2022-09-09T10:00:00.446Z,1.50
2022-09-09T10:01:00.439Z,1.60
2022-09-09T10:02:00.422Z,1.30
2022-09-09T10:03:00.418Z,1.90
2022-09-09T10:04:00.433Z,1.50
2022-09-09T10:05:00.530Z,1.40
2022-09-09T10:06:00.389Z,1.50
2022-09-09T10:07:00.377Z,1.50
2022-09-09T10:08:00.365Z,1.60
2022-09-09T10:09:00.353Z,1.50
2022-09-09T10:10:00.348Z,1.40
2022-09-09T10:11:00.336Z,1.80
2022-09-09T10:12:00.320Z,1.50
2022-09-09T10:13:00.331Z,1.60
2022-09-09T10:14:00.308Z,1.80
2022-09-09T10:15:00.310Z,1.70
2022-09-09T10:16:05.097Z,1.80
2022-09-09T10:17:00.274Z,1.80
2022-09-09T10:18:00.261Z,1.50
2022-09-09T10:19:00.248Z,1.50
2022-09-09T10:20:00.237Z,1.90
2022-09-09T10:21:00.226Z,2.20
2022-09-09T10:22:00.216Z,2.40
2022-09-09T10:23:00.206Z,2.10
2022-09-09T10:24:00.305Z,2.10
2022-09-09T10:25:00.208Z,1.90
2022-09-09T10:26:00.201Z,1.80
2022-09-09T10:27:00.181Z,1.70
2022-09-09T10:28:05.366Z,1.60
2022-09-09T10:29:00.171Z,1.60
2022-09-09T10:30:00.151Z,1.80
2022-09-09T10:31:00.256Z,2.00
2022-09-09T10:32:00.259Z,1.40
2022-09-09T10:33:00.283Z,1.60
2022-09-09T10:34:00.232Z,1.80
2022-09-09T10:35:00.177Z,1.40
2022-09-09T10:36:00.262Z,1.70
2022-09-09T10:37:00.263Z,1.70
2022-09-09T10:38:00.322Z,1.90
2022-09-09T10:39:00.252Z,1.80
2022-09-09T10:40:00.084Z,1.80
2022-09-09T10:41:00.044Z,2.10
2022-09-09T10:42:00.020Z,2.10
2022-09-09T10:43:00.007Z,1.90
2022-09-09T10:44:00.710Z,1.70
2022-09-09T10:45:00.020Z,1.60
2022-09-09T10:46:00.149Z,2.10
2022-09-09T10:47:01.765Z,2.30
2022-09-09T10:47:59.954Z,1.60
2022-09-09T10:48:59.946Z,1.80
2022-09-09T10:49:59.932Z,1.80
2022-09-09T10:51:03.366Z,1.70
2022-09-09T10:51:59.911Z,1.70
2022-09-09T10:53:00.512Z,1.90
2022-09-09T10:53:59.892Z,1.70
2022-09-09T10:54:59.880Z,1.80
2022-09-09T10:55:59.868Z,2.10
2022-09-09T10:56:59.862Z,2.30
2022-09-09T10:57:59.847Z,2.00
2022-09-09T10:58:59.840Z,1.90
2022-09-09T10:59:59.830Z,2.00
2022-09-09T11:01:00.025Z,2.10
2022-09-09T11:01:59.817Z,2.10
2022-09-09T11:02:59.798Z,2.20
2022-09-09T11:03:59.786Z,1.80
2022-09-09T11:04:59.775Z,1.80
2022-09-09T11:05:59.846Z,2.00
2022-09-09T11:06:59.755Z,2.00
2022-09-09T11:07:59.741Z,1.90
2022-09-09T11:08:59.729Z,1.90
2022-09-09T11:09:59.718Z,2.40
2022-09-09T11:10:59.709Z,1.90
2022-09-09T11:11:59.699Z,2.60
2022-09-09T11:12:59.689Z,2.40
2022-09-09T11:13:59.693Z,2.60
2022-09-09T11:14:59.711Z,2.20
2022-09-09T11:15:59.655Z,3.70
2022-09-09T11:16:59.747Z,4.20
2022-09-09T11:17:59.634Z,5.90
2022-09-09T11:18:59.626Z,7.20
2022-09-09T11:19:59.615Z,6.90
2022-09-09T11:20:59.607Z,5.90
2022-09-09T11:21:59.593Z,5.50
2022-09-09T11:22:59.584Z,4.20
2022-09-09T11:23:59.613Z,3.70
2022-09-09T11:24:59.564Z,3.40
2022-09-09T11:25:59.561Z,3.10
2022-09-09T11:26:59.542Z,3.00
2022-09-09T11:27:59.537Z,3.20
2022-09-09T11:29:04.096Z,3.30
2022-09-09T11:29:59.508Z,2.80
2022-09-09T11:30:59.648Z,3.10
2022-09-09T11:31:59.485Z,2.40
2022-09-09T11:32:59.513Z,2.20
2022-09-09T11:33:59.476Z,2.00
2022-09-09T11:34:59.457Z,2.10
2022-09-09T11:36:00.543Z,2.10
2022-09-09T11:36:59.585Z,1.70
2022-09-09T11:37:59.423Z,1.70
2022-09-09T11:38:59.452Z,2.10
2022-09-09T11:39:59.445Z,2.20
2022-09-09T11:40:59.393Z,2.50
2022-09-09T11:41:59.381Z,3.10
2022-09-09T11:42:59.371Z,2.40
2022-09-09T11:43:59.365Z,2.70
2022-09-09T11:44:59.352Z,2.90
2022-09-09T11:46:01.053Z,3.50
2022-09-09T11:46:59.330Z,4.30
2022-09-09T11:47:59.316Z,3.20
2022-09-09T11:48:59.329Z,3.60
2022-09-09T11:49:59.296Z,3.20
2022-09-09T11:50:59.286Z,2.90
2022-09-09T11:51:59.283Z,3.30
2022-09-09T11:52:59.268Z,3.10
2022-09-09T11:53:59.255Z,3.20
2022-09-09T11:54:59.250Z,2.20
2022-09-09T11:55:59.232Z,2.00
2022-09-09T11:56:59.230Z,2.40
2022-09-09T11:57:59.214Z,2.20
2022-09-09T11:58:59.203Z,2.30
2022-09-09T11:59:59.190Z,1.90
2022-09-09T12:00:59.182Z,2.20
2022-09-09T12:01:59.235Z,2.40
2022-09-09T12:02:59.159Z,1.80
2022-09-09T12:03:59.208Z,2.20
2022-09-09T12:04:59.239Z,2.10
2022-09-09T12:05:59.128Z,2.10
2022-09-09T12:06:59.116Z,2.30
2022-09-09T12:07:59.102Z,2.10
2022-09-09T12:08:59.094Z,2.00
2022-09-09T12:09:59.081Z,2.30
2022-09-09T12:10:59.073Z,2.20
2022-09-09T12:11:59.061Z,2.20
2022-09-09T12:12:59.051Z,2.10
2022-09-09T12:13:59.039Z,2.10
2022-09-09T12:14:59.032Z,2.10
2022-09-09T12:15:59.017Z,2.10
2022-09-09T12:16:59.137Z,2.40
2022-09-09T12:18:02.961Z,2.70
2022-09-09T12:18:58.989Z,3.00
2022-09-09T12:19:58.978Z,3.10
2022-09-09T12:20:58.986Z,3.20
2022-09-09T12:21:58.955Z,2.40
2022-09-09T12:22:58.943Z,2.10
2022-09-09T12:23:58.931Z,2.40
2022-09-09T12:24:58.921Z,2.10
2022-09-09T12:25:58.920Z,2.40
2022-09-09T12:26:58.900Z,2.20
2022-09-09T12:27:58.892Z,1.90
2022-09-09T12:28:58.876Z,2.70
2022-09-09T12:29:58.894Z,2.10
2022-09-09T12:30:58.938Z,2.30
2022-09-09T12:31:58.846Z,2.10
2022-09-09T12:32:58.836Z,2.00
2022-09-09T12:33:58.847Z,2.20
2022-09-09T12:34:58.812Z,2.20
2022-09-09T12:35:58.804Z,2.10
2022-09-09T12:36:58.824Z,2.00
2022-09-09T12:37:58.780Z,1.80
2022-09-09T12:38:58.774Z,1.60
2022-09-09T12:39:58.785Z,1.50
2022-09-09T12:40:58.750Z,1.60
2022-09-09T12:41:58.739Z,1.30
2022-09-09T12:42:58.741Z,1.60
2022-09-09T12:43:58.719Z,1.30
2022-09-09T12:44:58.703Z,1.60
2022-09-09T12:45:58.851Z,1.60
2022-09-09T12:46:58.682Z,1.40
2022-09-09T12:47:58.675Z,1.30
2022-09-09T12:48:58.663Z,1.70
2022-09-09T12:49:58.650Z,1.60
2022-09-09T12:50:58.638Z,1.30
2022-09-09T12:51:58.630Z,1.60
2022-09-09T12:52:58.643Z,1.70
2022-09-09T12:53:58.609Z,1.80
2022-09-09T12:54:58.616Z,1.90
2022-09-09T12:55:58.592Z,1.80
2022-09-09T12:56:58.574Z,1.70
2022-09-09T12:57:58.564Z,1.90
2022-09-09T12:58:58.555Z,2.00
2022-09-09T12:59:58.543Z,2.30
2022-09-09T13:00:58.653Z,2.40
2022-09-09T13:01:58.734Z,2.40
2022-09-09T13:02:58.510Z,2.20
2022-09-09T13:03:58.504Z,2.30
2022-09-09T13:04:58.488Z,2.20
2022-09-09T13:05:58.558Z,2.80
2022-09-09T13:06:58.488Z,2.20
2022-09-09T13:07:58.454Z,2.20